createdAt,value
2017-12-03T10:26:59.782Z,-0.28
2017-12-03T10:29:29.600Z,-0.21
2017-12-03T10:32:02.818Z,-0.28
2017-12-03T10:34:30.581Z,-0.24
2017-12-03T10:36:59.122Z,-0.12
2017-12-03T10:39:27.824Z,-0.23
2017-12-03T10:41:55.834Z,0.21
2017-12-03T10:44:24.146Z,0.07
2017-12-03T10:46:52.983Z,-0.13
2017-12-03T10:49:21.488Z,-0.19
2017-12-03T10:51:51.406Z,0.41
2017-12-03T10:54:20.821Z,0.73
2017-12-03T10:56:49.456Z,0.85
2017-12-03T10:59:17.342Z,0.90
2017-12-03T11:01:45.162Z,0.44
2017-12-03T11:04:14.107Z,0.58
2017-12-03T11:06:42.244Z,0.66
2017-12-03T11:09:10.317Z,0.69
2017-12-03T11:11:38.238Z,0.40
2017-12-03T11:14:07.548Z,0.20
2017-12-03T11:16:36.289Z,0.56
2017-12-03T11:19:04.081Z,0.68
2017-12-03T11:21:31.911Z,0.49
2017-12-03T11:23:59.708Z,1.03
2017-12-03T11:26:27.905Z,0.66
2017-12-03T11:28:56.068Z,1.32
2017-12-03T11:31:23.914Z,0.97
2017-12-03T11:33:51.721Z,1.10
2017-12-03T11:36:19.454Z,1.82
2017-12-03T11:38:47.397Z,1.42
2017-12-03T11:41:15.132Z,2.01
2017-12-03T11:43:42.967Z,2.28
2017-12-03T11:46:10.737Z,2.54
2017-12-03T11:48:38.476Z,2.71
2017-12-03T11:51:06.201Z,2.53
2017-12-03T11:53:34.016Z,2.20
2017-12-03T11:56:02.749Z,2.29
2017-12-03T11:58:30.471Z,2.97
2017-12-03T12:00:58.358Z,3.17
2017-12-03T12:03:26.293Z,3.05
2017-12-03T12:05:55.240Z,3.07
2017-12-03T12:08:23.598Z,3.13
2017-12-03T12:10:52.049Z,3.17
2017-12-03T12:13:20.646Z,3.25
2017-12-03T12:15:48.519Z,3.18
2017-12-03T12:18:16.279Z,2.89
2017-12-03T12:20:44.129Z,2.46
2017-12-03T12:23:11.929Z,2.70
2017-12-03T12:25:39.855Z,2.48
2017-12-03T12:28:07.991Z,2.54
2017-12-03T12:30:35.895Z,2.50
2017-12-03T12:33:06.089Z,2.87
2017-12-03T12:35:34.471Z,3.05
2017-12-03T12:38:02.382Z,2.85
2017-12-03T12:40:30.303Z,2.54
2017-12-03T12:42:58.120Z,2.47
2017-12-03T12:45:26.875Z,2.38
2017-12-03T12:47:54.658Z,2.13
2017-12-03T12:50:22.566Z,1.82
2017-12-03T12:52:51.430Z,1.77
2017-12-03T12:55:19.920Z,1.86
2017-12-03T12:57:47.668Z,1.85
2017-12-03T13:00:15.645Z,1.77
2017-12-03T13:02:43.449Z,1.42
2017-12-03T13:05:13.027Z,1.73
2017-12-03T13:07:40.867Z,1.72
2017-12-03T13:10:09.630Z,1.93
2017-12-03T13:12:37.429Z,1.95
2017-12-03T13:15:05.189Z,2.06
2017-12-03T13:17:33.820Z,2.25
2017-12-03T13:20:01.761Z,1.43
2017-12-03T13:22:29.508Z,1.41
2017-12-03T13:24:57.232Z,1.22
2017-12-03T13:27:25.052Z,1.14
2017-12-03T13:29:52.809Z,1.16
2017-12-03T13:32:20.741Z,1.34
2017-12-03T13:34:48.519Z,0.92
2017-12-03T13:37:16.522Z,0.78
2017-12-03T13:39:44.440Z,0.67
2017-12-03T13:42:12.187Z,0.66
2017-12-03T13:44:39.892Z,0.65
2017-12-03T13:47:07.711Z,0.71
2017-12-03T13:49:35.467Z,0.49
2017-12-03T13:52:03.276Z,0.13
2017-12-03T13:54:31.098Z,0.33
2017-12-03T13:56:58.878Z,0.24
2017-12-03T13:59:26.662Z,0.11
2017-12-03T14:01:54.375Z,0.03
2017-12-03T14:04:22.158Z,-0.30
2017-12-03T14:06:49.877Z,-0.05
2017-12-03T14:09:17.597Z,-0.44
2017-12-03T14:11:45.418Z,-0.61
2017-12-03T14:14:13.250Z,-0.56
2017-12-03T14:16:41.083Z,-0.45
2017-12-03T14:19:08.909Z,-0.45
2017-12-03T14:21:36.733Z,-0.46
2017-12-03T14:24:04.677Z,-0.50
2017-12-03T14:26:32.518Z,-0.61
2017-12-03T14:29:00.372Z,-0.46
2017-12-03T14:31:28.141Z,-0.31
2017-12-03T14:33:56.036Z,-0.34
2017-12-03T14:36:23.956Z,-0.56
2017-12-03T14:38:51.925Z,-0.53
2017-12-03T14:41:19.970Z,-0.64
2017-12-03T14:43:47.744Z,-0.67
2017-12-03T14:46:15.598Z,-0.67
2017-12-03T14:48:43.362Z,-0.67
2017-12-03T14:51:11.201Z,-0.87
2017-12-03T14:53:39.976Z,-0.91
2017-12-03T14:56:07.744Z,-0.91
2017-12-03T14:58:35.477Z,-0.98
2017-12-03T15:01:03.310Z,-1.02
2017-12-03T15:03:31.104Z,-0.88
2017-12-03T15:05:59.042Z,-1.04
2017-12-03T15:08:26.987Z,-0.96
2017-12-03T15:10:54.777Z,-1.06
2017-12-03T15:13:22.587Z,-1.10
2017-12-03T15:15:50.359Z,-0.94
2017-12-03T15:18:18.172Z,-1.01
2017-12-03T15:20:46.195Z,-1.08
2017-12-03T15:23:14.023Z,-1.07
2017-12-03T15:25:41.909Z,-1.13
2017-12-03T15:28:09.770Z,-1.15
2017-12-03T15:30:37.614Z,-1.20
2017-12-03T15:33:05.478Z,-1.22
2017-12-03T15:35:33.257Z,-1.20
2017-12-03T15:38:01.848Z,-1.17
2017-12-03T15:40:29.627Z,-1.26
2017-12-03T15:42:57.479Z,-1.44
2017-12-03T15:45:26.501Z,-1.31
2017-12-03T15:47:55.256Z,-1.37
2017-12-03T15:50:23.091Z,-1.35
2017-12-03T15:52:50.858Z,-1.40
2017-12-03T15:55:18.741Z,-1.38
2017-12-03T15:57:46.532Z,-1.42
2017-12-03T16:00:14.536Z,-1.42
2017-12-03T16:02:42.478Z,-1.49
2017-12-03T16:05:10.525Z,-1.40
2017-12-03T16:07:38.400Z,-1.43
2017-12-03T16:10:06.162Z,-1.59
2017-12-03T16:12:33.986Z,-1.69
2017-12-03T16:15:01.927Z,-1.77
2017-12-03T16:17:29.717Z,-1.72
2017-12-03T16:19:57.483Z,-1.77
2017-12-03T16:22:25.270Z,-1.84
2017-12-03T16:24:53.063Z,-1.95
2017-12-03T16:27:24.567Z,-1.90
2017-12-03T16:29:52.345Z,-1.46
2017-12-03T16:32:20.173Z,-1.81
2017-12-03T16:34:47.995Z,-1.95
2017-12-03T16:37:15.822Z,-2.01
2017-12-03T16:39:43.602Z,-1.88
2017-12-03T16:42:11.331Z,-2.23
2017-12-03T16:44:39.126Z,-2.08
2017-12-03T16:47:06.916Z,-1.97
2017-12-03T16:49:34.787Z,-1.89
2017-12-03T16:52:02.756Z,-2.03
2017-12-03T16:54:30.589Z,-2.25
2017-12-03T16:56:58.366Z,-2.34
2017-12-03T16:59:27.068Z,-2.40
2017-12-03T17:01:55.976Z,-2.40
2017-12-03T17:04:23.897Z,-2.46
2017-12-03T17:06:51.831Z,-2.57
2017-12-03T17:09:19.734Z,-2.83
2017-12-03T17:11:47.737Z,-2.84
2017-12-03T17:14:15.587Z,-2.81
2017-12-03T17:16:43.529Z,-2.89
2017-12-03T17:19:11.396Z,-2.82
2017-12-03T17:21:40.387Z,-2.84
2017-12-03T17:24:08.155Z,-2.85
2017-12-03T17:26:36.065Z,-2.87
2017-12-03T17:29:03.921Z,-2.87
2017-12-03T17:31:31.718Z,-3.12
2017-12-03T17:33:59.867Z,-3.15
2017-12-03T17:36:27.716Z,-3.11
2017-12-03T17:38:55.565Z,-2.96
2017-12-03T17:41:23.548Z,-2.92
2017-12-03T17:43:51.323Z,-2.94
2017-12-03T17:46:19.119Z,-3.12
2017-12-03T17:48:47.519Z,-3.22
2017-12-03T17:51:16.899Z,-3.28
2017-12-03T17:53:45.436Z,-3.31
2017-12-03T17:56:14.118Z,-3.32
2017-12-03T17:58:42.033Z,-3.37
2017-12-03T18:01:09.863Z,-3.39
2017-12-03T18:03:37.768Z,-3.45
2017-12-03T18:06:05.580Z,-3.59
2017-12-03T18:08:33.375Z,-3.52
2017-12-03T18:11:01.085Z,-3.52
2017-12-03T18:13:29.911Z,-3.62
2017-12-03T18:15:58.863Z,-3.70
2017-12-03T18:18:26.670Z,-3.67
2017-12-03T18:20:54.723Z,-3.66
2017-12-03T18:23:22.561Z,-3.84
2017-12-03T18:25:50.410Z,-3.90
2017-12-03T18:28:19.178Z,-3.99
2017-12-03T18:30:46.903Z,-4.00
2017-12-03T18:33:15.829Z,-3.98
2017-12-03T18:35:43.664Z,-3.99
2017-12-03T18:38:11.577Z,-4.13
2017-12-03T18:40:39.441Z,-4.06
2017-12-03T18:43:07.298Z,-4.08
2017-12-03T18:45:36.071Z,-4.03
2017-12-03T18:48:03.955Z,-4.08
2017-12-03T18:50:32.334Z,-4.02
2017-12-03T18:53:01.297Z,-4.23
2017-12-03T18:55:29.179Z,-4.31
2017-12-03T18:57:57.031Z,-4.36
2017-12-03T19:00:25.062Z,-4.36
2017-12-03T19:02:54.312Z,-4.31
2017-12-03T19:05:22.410Z,-4.36
2017-12-03T19:07:50.249Z,-4.55
2017-12-03T19:10:18.052Z,-4.54
2017-12-03T19:12:47.418Z,-4.54
2017-12-03T19:15:15.163Z,-4.57
2017-12-03T19:17:44.257Z,-4.60
2017-12-03T19:20:16.070Z,-4.68
2017-12-03T19:22:46.932Z,-4.61
2017-12-03T19:25:16.053Z,-4.56
2017-12-03T19:27:44.003Z,-4.55
2017-12-03T19:30:11.983Z,-4.61
2017-12-03T19:32:40.207Z,-4.67
2017-12-03T19:35:09.718Z,-4.76
2017-12-03T19:37:40.261Z,-4.75
2017-12-03T19:40:08.198Z,-4.80
2017-12-03T19:42:37.599Z,-4.80
2017-12-03T19:45:09.338Z,-4.97
2017-12-03T19:47:37.446Z,-4.91
2017-12-03T19:50:06.760Z,-4.90
2017-12-03T19:52:35.525Z,-4.86
2017-12-03T19:55:06.212Z,-4.86
2017-12-03T19:57:35.082Z,-4.84
2017-12-03T20:00:04.299Z,-4.90
2017-12-03T20:02:37.374Z,-4.87
2017-12-03T20:05:08.943Z,-4.93
2017-12-03T20:07:40.176Z,-4.93
2017-12-03T20:10:09.676Z,-4.96
2017-12-03T20:12:38.709Z,-5.14
2017-12-03T20:15:07.050Z,-5.23
2017-12-03T20:17:38.694Z,-5.13
2017-12-03T20:20:08.050Z,-5.20
2017-12-03T20:22:40.541Z,-5.15
2017-12-03T20:25:09.973Z,-5.07
2017-12-03T20:27:43.321Z,-4.98
2017-12-03T20:30:12.507Z,-5.15
2017-12-03T20:32:44.422Z,-5.35
2017-12-03T20:35:13.990Z,-5.25
2017-12-03T20:37:53.453Z,-5.15
2017-12-03T20:40:30.777Z,-5.26
2017-12-03T20:47:42.181Z,-5.20
2017-12-03T20:50:32.718Z,-5.29
2017-12-03T20:53:17.733Z,-5.34
2017-12-03T20:55:58.524Z,-5.37
2017-12-03T20:58:37.148Z,-5.36
2017-12-03T21:05:44.345Z,-5.40
2017-12-03T21:08:20.952Z,-5.48
2017-12-03T21:10:50.451Z,-5.51
2017-12-03T21:13:35.343Z,-5.52
2017-12-03T21:16:21.859Z,-5.64
2017-12-03T21:33:49.150Z,-5.44
2017-12-03T21:42:25.417Z,-5.25
2017-12-03T21:48:13.440Z,-5.14
2017-12-03T21:50:41.964Z,-4.97
2017-12-03T21:53:09.924Z,-4.88
2017-12-03T21:56:30.746Z,-4.86
2017-12-03T21:59:20.593Z,-4.68
2017-12-03T22:22:44.269Z,-4.50
2017-12-03T22:25:32.565Z,-4.45
2017-12-03T22:31:04.727Z,-4.21
2017-12-03T22:36:20.851Z,-4.15
2017-12-03T22:38:59.517Z,-4.07
2017-12-03T22:41:29.641Z,-4.07
2017-12-03T22:44:08.078Z,-4.15
2017-12-03T22:46:36.477Z,-4.07
2017-12-03T22:49:08.410Z,-4.13
2017-12-03T22:51:37.817Z,-4.04
2017-12-03T22:54:11.104Z,-3.99
2017-12-03T22:56:38.919Z,-3.95
2017-12-03T22:59:07.775Z,-4.06
2017-12-03T23:01:35.457Z,-4.06
2017-12-03T23:04:05.160Z,-4.07
2017-12-03T23:06:33.184Z,-4.05
2017-12-03T23:09:01.709Z,-4.20
2017-12-03T23:11:29.458Z,-4.15
2017-12-03T23:13:57.531Z,-4.18
2017-12-03T23:16:25.294Z,-4.02
2017-12-03T23:18:52.966Z,-4.11
2017-12-03T23:21:21.596Z,-3.96
2017-12-03T23:23:50.158Z,-3.69
2017-12-03T23:26:18.835Z,-3.81
2017-12-03T23:28:46.585Z,-3.88
2017-12-03T23:31:15.370Z,-3.89
2017-12-03T23:33:43.262Z,-3.90
2017-12-03T23:36:11.048Z,-3.80
2017-12-03T23:38:38.809Z,-3.87
2017-12-03T23:41:06.694Z,-3.86
2017-12-03T23:43:34.470Z,-3.58
2017-12-03T23:46:02.876Z,-3.74
2017-12-03T23:48:30.684Z,-3.79
2017-12-03T23:50:58.446Z,-3.81
2017-12-03T23:53:26.196Z,-3.86
2017-12-03T23:55:53.947Z,-3.92
2017-12-03T23:58:21.807Z,-3.82
